createdAt,value
2018-11-29T00:00:38.121Z,99.90
2018-11-29T00:03:08.505Z,99.90
2018-11-29T00:05:38.072Z,99.90
2018-11-29T00:08:07.676Z,99.90
2018-11-29T00:10:37.195Z,99.90
2018-11-29T00:13:06.907Z,99.90
2018-11-29T00:15:36.592Z,99.90
2018-11-29T00:18:06.168Z,99.90
2018-11-29T00:20:35.783Z,99.90
2018-11-29T00:23:05.330Z,99.90
2018-11-29T00:25:34.902Z,99.90
2018-11-29T00:28:04.518Z,99.90
2018-11-29T00:30:33.928Z,99.90
2018-11-29T00:33:03.358Z,99.90
2018-11-29T00:35:32.902Z,99.90
2018-11-29T00:38:02.419Z,99.90
2018-11-29T00:40:31.972Z,99.90
2018-11-29T00:43:01.476Z,99.90
2018-11-29T00:45:31.039Z,99.90
2018-11-29T00:48:00.639Z,99.90
2018-11-29T00:50:30.079Z,99.90
2018-11-29T00:52:59.535Z,99.90
2018-11-29T00:55:28.928Z,99.90
2018-11-29T00:57:58.556Z,99.90
2018-11-29T01:00:28.235Z,99.90
2018-11-29T01:02:57.821Z,99.90
2018-11-29T01:05:27.387Z,99.90
2018-11-29T01:07:56.903Z,99.90
2018-11-29T01:10:26.315Z,99.90
2018-11-29T01:12:55.599Z,99.90
2018-11-29T01:15:24.955Z,99.90
2018-11-29T01:17:54.602Z,99.90
2018-11-29T01:20:24.123Z,99.90
2018-11-29T01:22:53.648Z,99.90
2018-11-29T01:25:23.193Z,99.90
2018-11-29T01:27:52.826Z,99.90
2018-11-29T01:30:22.455Z,99.90
2018-11-29T01:32:51.892Z,99.90
2018-11-29T01:35:21.619Z,99.90
2018-11-29T01:37:51.264Z,99.90
2018-11-29T01:40:22.322Z,99.90
2018-11-29T01:42:55.826Z,99.90
2018-11-29T01:45:25.606Z,99.90
2018-11-29T01:47:55.110Z,99.90
2018-11-29T01:50:24.796Z,99.90
2018-11-29T01:52:54.206Z,99.90
2018-11-29T01:55:23.826Z,99.90
2018-11-29T01:57:53.265Z,99.90
2018-11-29T02:00:22.758Z,99.90
2018-11-29T02:02:53.711Z,99.90
2018-11-29T02:05:23.201Z,99.90
2018-11-29T02:07:52.821Z,99.90
2018-11-29T02:10:27.803Z,99.90
2018-11-29T02:12:57.447Z,99.90
2018-11-29T02:15:26.955Z,99.90
2018-11-29T02:17:56.368Z,99.90
2018-11-29T02:20:26.032Z,99.90
2018-11-29T02:22:55.486Z,99.90
2018-11-29T02:25:25.127Z,99.90
2018-11-29T02:27:54.645Z,99.90
2018-11-29T02:30:24.493Z,99.90
2018-11-29T02:32:54.010Z,99.90
2018-11-29T02:35:23.474Z,99.90
2018-11-29T02:37:53.451Z,99.90
2018-11-29T02:40:23.249Z,99.90
2018-11-29T02:42:53.172Z,99.90
2018-11-29T02:45:24.564Z,99.90
2018-11-29T02:47:54.156Z,99.90
2018-11-29T02:50:23.698Z,99.90
2018-11-29T02:52:53.016Z,99.90
2018-11-29T02:55:22.592Z,99.90
2018-11-29T02:57:52.023Z,99.90
2018-11-29T03:00:21.684Z,99.90
2018-11-29T03:02:51.230Z,99.90
2018-11-29T03:05:20.634Z,99.90
2018-11-29T03:07:50.144Z,99.90
2018-11-29T03:10:24.782Z,99.90
2018-11-29T03:12:54.252Z,99.90
2018-11-29T03:15:23.847Z,99.90
2018-11-29T03:17:53.232Z,99.90
2018-11-29T03:20:22.779Z,99.90
2018-11-29T03:22:52.284Z,99.90
2018-11-29T03:25:21.618Z,99.90
2018-11-29T03:27:51.264Z,99.90
2018-11-29T03:30:22.040Z,99.90
2018-11-29T03:32:51.531Z,99.90
2018-11-29T03:35:21.042Z,99.90
2018-11-29T03:37:50.631Z,99.90
2018-11-29T03:40:20.203Z,99.90
2018-11-29T03:42:49.636Z,99.90
2018-11-29T03:45:19.059Z,99.90
2018-11-29T03:47:48.562Z,99.90
2018-11-29T03:50:18.727Z,99.90
2018-11-29T03:52:48.274Z,99.90
2018-11-29T03:55:17.844Z,99.90
2018-11-29T03:57:47.466Z,99.90
2018-11-29T04:00:17.837Z,99.90
2018-11-29T04:02:48.188Z,99.90
2018-11-29T04:05:17.817Z,99.90
2018-11-29T04:07:47.347Z,99.90
2018-11-29T04:10:17.370Z,99.90
2018-11-29T04:12:46.988Z,99.90
2018-11-29T04:15:17.095Z,99.90
2018-11-29T04:17:46.785Z,99.90
2018-11-29T04:20:17.094Z,99.90
2018-11-29T04:22:46.530Z,99.90
2018-11-29T04:25:16.511Z,99.90
2018-11-29T04:27:46.252Z,99.90
2018-11-29T04:30:17.565Z,99.90
2018-11-29T04:32:47.265Z,99.90
2018-11-29T04:35:16.800Z,99.90
2018-11-29T04:37:46.362Z,99.90
2018-11-29T04:40:16.639Z,99.90
2018-11-29T04:42:46.420Z,99.90
2018-11-29T04:45:20.109Z,99.90
2018-11-29T04:47:49.721Z,99.90
2018-11-29T04:50:19.261Z,99.90
2018-11-29T04:52:48.658Z,99.90
2018-11-29T04:55:18.655Z,99.90
2018-11-29T04:57:48.071Z,99.90
2018-11-29T05:00:17.970Z,99.90
2018-11-29T05:02:47.238Z,99.90
2018-11-29T05:05:17.025Z,99.90
2018-11-29T05:07:46.503Z,99.90
2018-11-29T05:10:18.635Z,99.90
2018-11-29T05:12:48.359Z,99.90
2018-11-29T05:15:18.329Z,99.90
2018-11-29T05:17:47.825Z,99.90
2018-11-29T05:20:17.385Z,99.90
2018-11-29T05:22:46.908Z,99.90
2018-11-29T05:25:17.145Z,99.90
2018-11-29T05:27:45.983Z,99.90
2018-11-29T05:30:15.839Z,99.90
2018-11-29T05:32:45.247Z,99.90
2018-11-29T05:35:14.800Z,99.90
2018-11-29T05:37:45.294Z,99.90
2018-11-29T05:40:15.218Z,99.90
2018-11-29T05:42:44.825Z,99.90
2018-11-29T05:45:14.457Z,99.90
2018-11-29T05:47:44.117Z,99.90
2018-11-29T05:50:13.711Z,99.90
2018-11-29T05:52:43.242Z,99.90
2018-11-29T05:55:13.043Z,99.90
2018-11-29T05:57:42.445Z,99.90
2018-11-29T06:00:14.856Z,99.90
2018-11-29T06:02:44.806Z,99.90
2018-11-29T06:05:15.783Z,99.90
2018-11-29T06:07:45.170Z,99.90
2018-11-29T06:10:17.990Z,99.90
2018-11-29T06:12:47.861Z,99.90
2018-11-29T06:15:17.383Z,99.90
2018-11-29T06:17:46.886Z,99.90
2018-11-29T06:20:17.609Z,99.90
2018-11-29T06:22:48.419Z,99.90
2018-11-29T06:25:18.333Z,99.90
2018-11-29T06:27:50.600Z,99.90
2018-11-29T06:30:28.339Z,99.90
2018-11-29T06:33:00.802Z,99.90
2018-11-29T06:35:34.307Z,99.90
2018-11-29T06:38:05.312Z,99.90
2018-11-29T06:40:38.525Z,99.90
2018-11-29T06:43:09.994Z,99.90
2018-11-29T06:45:40.284Z,99.90
2018-11-29T06:48:13.917Z,99.90
2018-11-29T06:50:43.535Z,99.90
2018-11-29T06:53:18.148Z,99.90
2018-11-29T06:55:47.829Z,99.90
2018-11-29T06:58:17.427Z,99.90
2018-11-29T07:00:46.874Z,99.90
2018-11-29T07:03:16.383Z,99.90
2018-11-29T07:05:46.073Z,99.90
2018-11-29T07:08:15.532Z,99.90
2018-11-29T07:10:45.071Z,99.90
2018-11-29T07:13:14.441Z,99.90
2018-11-29T07:15:43.954Z,99.90
2018-11-29T07:18:13.451Z,99.90
2018-11-29T07:20:42.984Z,99.90
2018-11-29T07:23:12.402Z,99.90
2018-11-29T07:25:41.935Z,99.90
2018-11-29T07:28:11.559Z,99.90
2018-11-29T07:30:41.131Z,99.90
2018-11-29T07:33:10.660Z,99.90
2018-11-29T07:35:40.198Z,99.40
2018-11-29T07:38:09.699Z,99.20
2018-11-29T07:40:39.236Z,99.40
2018-11-29T07:43:09.113Z,98.90
2018-11-29T07:45:38.557Z,98.30
2018-11-29T07:48:08.048Z,98.10
2018-11-29T07:50:37.496Z,98.30
2018-11-29T07:53:07.215Z,98.10
2018-11-29T07:55:36.749Z,98.50
2018-11-29T07:58:06.611Z,98.30
2018-11-29T08:00:36.069Z,98.00
2018-11-29T08:03:05.597Z,98.10
2018-11-29T08:05:35.105Z,98.00
2018-11-29T08:08:04.761Z,97.80
2018-11-29T08:10:34.279Z,97.70
2018-11-29T08:13:03.707Z,97.90
2018-11-29T08:15:33.165Z,97.50
2018-11-29T08:18:02.785Z,97.40
2018-11-29T08:20:32.213Z,97.40
2018-11-29T08:23:01.726Z,97.80
2018-11-29T08:25:31.080Z,97.30
2018-11-29T08:28:00.682Z,96.90
2018-11-29T08:30:30.330Z,96.50
2018-11-29T08:32:59.860Z,96.70
2018-11-29T08:35:29.386Z,95.90
2018-11-29T08:37:58.917Z,96.00
2018-11-29T08:40:28.358Z,95.50
2018-11-29T08:42:57.762Z,95.70
2018-11-29T08:45:27.281Z,95.40
2018-11-29T08:47:56.541Z,95.40
2018-11-29T08:50:25.815Z,94.30
2018-11-29T08:52:55.076Z,93.80
2018-11-29T08:55:24.315Z,93.70
2018-11-29T08:57:53.636Z,93.70
2018-11-29T09:00:23.234Z,94.40
2018-11-29T09:02:52.515Z,94.20
2018-11-29T09:05:21.765Z,94.80
2018-11-29T09:07:51.454Z,94.20
2018-11-29T09:10:23.943Z,93.70
2018-11-29T09:12:53.467Z,93.80
2018-11-29T09:15:23.029Z,94.10
2018-11-29T09:17:52.572Z,94.30
2018-11-29T09:20:22.804Z,93.70
2018-11-29T09:22:52.416Z,93.60
2018-11-29T09:25:22.800Z,94.00
2018-11-29T09:27:52.319Z,93.70
2018-11-29T09:30:22.563Z,93.60
2018-11-29T09:32:53.776Z,93.20
2018-11-29T09:35:23.520Z,92.90
2018-11-29T09:37:53.175Z,92.90
2018-11-29T09:40:22.714Z,92.50
2018-11-29T09:42:52.225Z,93.40
2018-11-29T09:45:23.477Z,92.80
2018-11-29T09:47:54.114Z,92.60
2018-11-29T09:50:24.161Z,92.40
2018-11-29T09:52:53.731Z,92.40
2018-11-29T09:55:23.334Z,92.20
2018-11-29T09:57:53.240Z,91.90
2018-11-29T10:00:28.109Z,91.30
2018-11-29T10:03:03.078Z,91.30
2018-11-29T10:05:32.577Z,91.20
2018-11-29T10:08:02.116Z,90.60
2018-11-29T10:10:31.496Z,90.20
2018-11-29T10:13:00.980Z,90.40
2018-11-29T10:15:30.482Z,90.50
2018-11-29T10:17:59.936Z,90.50
2018-11-29T10:20:29.488Z,90.90
2018-11-29T10:22:59.001Z,91.00
2018-11-29T10:25:28.623Z,90.00
2018-11-29T10:28:06.497Z,90.20
2018-11-29T10:30:40.793Z,89.60
2018-11-29T10:33:10.378Z,88.70
2018-11-29T10:35:40.028Z,90.00
2018-11-29T10:38:09.532Z,87.70
2018-11-29T10:40:38.968Z,88.00
2018-11-29T10:43:08.472Z,86.80
2018-11-29T10:45:37.916Z,85.10
2018-11-29T10:48:09.543Z,82.00
2018-11-29T10:50:39.112Z,76.10
2018-11-29T10:53:09.591Z,73.10
2018-11-29T10:55:39.234Z,72.10
2018-11-29T10:58:08.963Z,71.70
2018-11-29T11:01:41.594Z,68.10
2018-11-29T11:04:11.158Z,68.10
2018-11-29T11:06:40.780Z,73.40
2018-11-29T11:09:11.442Z,72.20
2018-11-29T11:11:40.915Z,76.10
2018-11-29T11:14:10.332Z,78.60
2018-11-29T11:16:39.714Z,77.10
2018-11-29T11:19:09.323Z,75.00
2018-11-29T11:21:38.818Z,73.30
2018-11-29T11:24:08.352Z,71.80
2018-11-29T11:26:37.751Z,72.40
2018-11-29T11:29:07.550Z,73.00
2018-11-29T11:31:37.141Z,72.70
2018-11-29T11:34:07.047Z,72.60
2018-11-29T11:36:36.564Z,76.40
2018-11-29T11:39:08.100Z,74.30
2018-11-29T11:41:37.625Z,70.70
2018-11-29T11:44:07.159Z,69.60
2018-11-29T11:46:36.654Z,71.40
2018-11-29T11:49:06.210Z,69.90
2018-11-29T11:51:35.843Z,71.70
2018-11-29T11:54:05.593Z,72.90
2018-11-29T11:56:35.278Z,74.20
2018-11-29T11:59:04.852Z,73.80
2018-11-29T12:01:34.288Z,72.00
2018-11-29T12:04:03.656Z,72.00
2018-11-29T12:06:33.164Z,71.00
2018-11-29T12:09:02.663Z,70.30
2018-11-29T12:11:32.212Z,66.50
2018-11-29T12:14:01.730Z,67.40
2018-11-29T12:16:31.301Z,66.60
2018-11-29T12:19:02.389Z,66.30
2018-11-29T12:21:30.416Z,65.20
2018-11-29T12:24:01.244Z,64.30
2018-11-29T12:26:31.635Z,65.30
2018-11-29T12:29:02.295Z,64.10
2018-11-29T12:31:32.812Z,64.60
2018-11-29T12:34:03.809Z,62.30
2018-11-29T12:36:34.375Z,61.40
2018-11-29T12:39:05.312Z,59.70
2018-11-29T12:41:36.252Z,61.40
2018-11-29T12:44:07.191Z,61.70
2018-11-29T12:46:37.991Z,62.80
2018-11-29T12:49:08.669Z,62.00
2018-11-29T12:51:39.391Z,61.90
2018-11-29T12:54:10.251Z,62.90
2018-11-29T12:56:41.021Z,62.40
2018-11-29T12:59:11.656Z,61.40
2018-11-29T13:01:42.359Z,61.40
2018-11-29T13:04:13.867Z,59.80
2018-11-29T13:06:44.607Z,59.10
2018-11-29T13:09:15.476Z,57.50
2018-11-29T13:11:47.001Z,61.90
2018-11-29T13:14:18.030Z,59.70
2018-11-29T13:16:48.786Z,60.90
2018-11-29T13:19:19.612Z,60.60
2018-11-29T13:21:50.437Z,63.60
2018-11-29T13:24:21.206Z,62.40
2018-11-29T13:26:51.941Z,61.50
2018-11-29T13:29:22.656Z,60.70
2018-11-29T13:31:53.411Z,60.90
2018-11-29T13:34:24.070Z,62.00
2018-11-29T13:36:54.687Z,61.40
2018-11-29T13:39:25.411Z,64.00
2018-11-29T13:41:56.017Z,64.90
2018-11-29T13:44:27.238Z,67.30
2018-11-29T13:46:58.102Z,67.00
2018-11-29T13:49:28.865Z,69.50
2018-11-29T13:51:59.694Z,70.70
2018-11-29T13:54:29.706Z,70.40
2018-11-29T13:57:00.171Z,71.70
2018-11-29T13:59:29.839Z,71.70
2018-11-29T14:01:59.346Z,70.70
2018-11-29T14:04:28.873Z,72.80
2018-11-29T14:06:58.539Z,73.10
2018-11-29T14:09:27.974Z,73.50
2018-11-29T14:11:57.388Z,75.00
2018-11-29T14:14:26.971Z,75.50
2018-11-29T14:16:56.540Z,73.90
2018-11-29T14:19:26.011Z,74.60
2018-11-29T14:21:55.475Z,75.40
2018-11-29T14:24:24.950Z,75.10
2018-11-29T14:26:54.469Z,76.30
2018-11-29T14:29:24.018Z,76.10
2018-11-29T14:32:12.825Z,76.60
2018-11-29T14:34:42.336Z,76.90
2018-11-29T14:37:11.748Z,76.60
2018-11-29T14:39:41.223Z,76.30
2018-11-29T14:42:10.763Z,77.30
2018-11-29T14:44:40.280Z,77.80
2018-11-29T14:47:09.699Z,79.00
2018-11-29T14:49:39.175Z,79.10
2018-11-29T14:52:09.125Z,79.40
2018-11-29T14:54:38.520Z,79.60
2018-11-29T14:57:07.900Z,79.20
2018-11-29T14:59:37.278Z,79.40
2018-11-29T15:02:06.785Z,78.50
2018-11-29T15:04:36.285Z,78.50
2018-11-29T15:07:06.861Z,78.00
2018-11-29T15:09:36.347Z,77.50
2018-11-29T15:12:05.889Z,77.00
2018-11-29T15:14:35.529Z,76.80
2018-11-29T15:17:04.972Z,76.20
2018-11-29T15:19:34.456Z,76.30
2018-11-29T15:22:04.057Z,76.40
2018-11-29T15:24:33.548Z,74.30
2018-11-29T15:27:02.950Z,74.00
2018-11-29T15:29:32.504Z,74.40
2018-11-29T15:32:02.064Z,75.90
2018-11-29T15:34:31.532Z,76.90
2018-11-29T15:37:01.020Z,77.50
2018-11-29T15:39:30.627Z,80.30
2018-11-29T15:42:00.090Z,79.80
2018-11-29T15:44:29.604Z,84.00
2018-11-29T15:46:59.084Z,86.40
2018-11-29T15:49:28.555Z,87.10
2018-11-29T15:51:58.250Z,87.30
2018-11-29T15:54:27.819Z,87.90
2018-11-29T15:56:57.308Z,88.90
2018-11-29T15:59:26.856Z,90.00
2018-11-29T16:01:56.306Z,90.50
2018-11-29T16:04:25.821Z,90.90
2018-11-29T16:06:55.256Z,91.40
2018-11-29T16:09:24.667Z,91.60
2018-11-29T16:11:54.083Z,91.80
2018-11-29T16:14:23.683Z,92.10
2018-11-29T16:16:53.067Z,92.10
2018-11-29T16:19:22.577Z,92.20
2018-11-29T16:21:52.079Z,92.60
2018-11-29T16:24:21.567Z,92.70
2018-11-29T16:26:51.161Z,93.10
2018-11-29T16:29:20.606Z,94.10
2018-11-29T16:31:50.080Z,93.00
2018-11-29T16:34:19.657Z,93.30
2018-11-29T16:36:49.271Z,93.10
2018-11-29T16:39:18.727Z,94.00
2018-11-29T16:41:48.280Z,93.40
2018-11-29T16:44:17.787Z,93.40
2018-11-29T16:46:47.310Z,93.70
2018-11-29T16:49:16.831Z,93.70
2018-11-29T16:51:46.308Z,93.70
2018-11-29T16:54:15.824Z,94.40
2018-11-29T16:56:45.346Z,94.80
2018-11-29T16:59:14.755Z,95.30
2018-11-29T17:01:45.090Z,95.90
2018-11-29T17:04:14.584Z,96.00
2018-11-29T17:06:44.100Z,95.90
2018-11-29T17:09:13.670Z,95.50
2018-11-29T17:11:43.187Z,96.10
2018-11-29T17:14:12.696Z,96.80
2018-11-29T17:16:42.252Z,97.30
2018-11-29T17:19:11.891Z,97.50
2018-11-29T17:21:41.310Z,97.40
2018-11-29T17:24:11.721Z,97.30
2018-11-29T17:26:41.163Z,96.90
2018-11-29T17:29:10.826Z,96.90
2018-11-29T17:31:40.324Z,96.50
2018-11-29T17:34:10.052Z,96.10
2018-11-29T17:36:39.577Z,96.00
2018-11-29T17:39:10.484Z,96.00
2018-11-29T17:41:40.340Z,96.70
2018-11-29T17:44:10.086Z,97.30
2018-11-29T17:46:39.619Z,97.60
2018-11-29T17:49:09.254Z,97.50
2018-11-29T17:51:39.291Z,97.50
2018-11-29T17:54:10.095Z,96.90
2018-11-29T17:56:40.788Z,97.20
2018-11-29T17:59:11.411Z,96.60
2018-11-29T18:01:42.221Z,97.00
2018-11-29T18:04:12.358Z,96.90
2018-11-29T18:06:42.953Z,96.90
2018-11-29T18:09:14.027Z,96.40
2018-11-29T18:11:45.076Z,96.70
2018-11-29T18:14:15.904Z,96.80
2018-11-29T18:16:46.795Z,97.20
2018-11-29T18:19:18.088Z,96.90
2018-11-29T18:21:49.076Z,96.80
2018-11-29T18:24:20.315Z,96.60
2018-11-29T18:26:55.385Z,96.70
2018-11-29T18:29:26.219Z,96.40
2018-11-29T18:31:57.244Z,96.80
2018-11-29T18:34:28.515Z,97.00
2018-11-29T18:36:59.704Z,96.80
2018-11-29T18:39:30.387Z,96.70
2018-11-29T18:42:01.136Z,96.90
2018-11-29T18:44:31.875Z,97.40
2018-11-29T18:47:02.595Z,97.20
2018-11-29T18:49:33.027Z,96.70
2018-11-29T18:52:03.787Z,96.80
2018-11-29T18:54:34.755Z,96.60
2018-11-29T18:57:05.507Z,96.50
2018-11-29T18:59:36.063Z,97.30
2018-11-29T19:02:07.124Z,97.30
2018-11-29T19:04:38.376Z,97.30
2018-11-29T19:07:09.404Z,97.30
2018-11-29T19:09:41.288Z,96.90
2018-11-29T19:12:12.653Z,97.10
2018-11-29T19:14:44.281Z,97.10
2018-11-29T19:17:15.425Z,97.30
2018-11-29T19:19:46.083Z,97.40
2018-11-29T19:22:16.696Z,97.40
2018-11-29T19:24:47.405Z,97.80
2018-11-29T19:27:18.080Z,98.00
2018-11-29T19:29:49.840Z,97.80
2018-11-29T19:32:21.191Z,97.70
2018-11-29T19:34:52.246Z,97.50
2018-11-29T19:37:23.224Z,97.50
2018-11-29T19:39:54.156Z,97.40
2018-11-29T19:42:25.059Z,97.50
2018-11-29T19:44:55.794Z,97.90
2018-11-29T19:47:26.616Z,98.50
2018-11-29T19:49:57.351Z,98.70
2018-11-29T19:52:28.042Z,99.60
2018-11-29T19:54:58.695Z,99.90
2018-11-29T19:57:29.464Z,99.90
2018-11-29T20:00:00.037Z,99.90
2018-11-29T20:02:30.820Z,99.90
2018-11-29T20:05:01.619Z,99.90
2018-11-29T20:07:32.786Z,99.90
2018-11-29T20:10:03.798Z,99.90
2018-11-29T20:12:35.226Z,99.90
2018-11-29T20:15:07.647Z,99.90
2018-11-29T20:17:38.790Z,99.90
2018-11-29T20:20:11.148Z,99.90
2018-11-29T20:22:42.085Z,99.90
2018-11-29T20:25:17.818Z,99.90
2018-11-29T20:27:48.682Z,99.90
2018-11-29T20:30:24.308Z,99.90
2018-11-29T20:32:55.796Z,99.90
2018-11-29T20:35:26.526Z,99.90
2018-11-29T20:37:57.267Z,99.90
2018-11-29T20:40:29.377Z,99.90
2018-11-29T20:43:01.132Z,99.90
2018-11-29T20:46:06.772Z,99.90
2018-11-29T20:48:37.840Z,99.90
2018-11-29T20:51:08.907Z,99.90
2018-11-29T20:53:40.395Z,99.90
2018-11-29T20:56:13.559Z,99.90
2018-11-29T20:58:44.587Z,99.90
2018-11-29T21:01:15.598Z,99.90
2018-11-29T21:03:45.665Z,99.90
2018-11-29T21:06:15.931Z,99.90
2018-11-29T21:08:46.710Z,99.90
2018-11-29T21:11:16.717Z,99.90
2018-11-29T21:13:46.788Z,99.90
2018-11-29T21:16:17.896Z,99.90
2018-11-29T21:18:47.968Z,99.90
2018-11-29T21:21:19.103Z,99.90
2018-11-29T21:23:49.578Z,99.90
2018-11-29T21:26:19.644Z,99.90
2018-11-29T21:28:49.736Z,99.90
2018-11-29T21:31:19.767Z,99.90
2018-11-29T21:33:49.916Z,99.90
2018-11-29T21:36:19.919Z,99.90
2018-11-29T21:38:49.925Z,99.90
2018-11-29T21:41:20.097Z,99.90
2018-11-29T21:43:50.135Z,99.90
2018-11-29T21:46:20.133Z,99.90
2018-11-29T21:48:51.679Z,99.90
2018-11-29T21:51:21.702Z,99.90
2018-11-29T21:53:51.660Z,99.90
2018-11-29T21:56:21.487Z,99.90
2018-11-29T21:58:50.903Z,99.90
2018-11-29T22:01:20.223Z,99.90
2018-11-29T22:03:49.518Z,99.90
2018-11-29T22:06:18.775Z,99.90
2018-11-29T22:08:48.043Z,99.90
2018-11-29T22:11:17.412Z,99.90
2018-11-29T22:13:46.699Z,99.90
2018-11-29T22:16:15.929Z,99.90
2018-11-29T22:18:45.228Z,99.90
2018-11-29T22:21:14.511Z,99.90
2018-11-29T22:23:43.741Z,99.90
2018-11-29T22:26:15.175Z,99.90
2018-11-29T22:28:44.503Z,99.90
2018-11-29T22:31:13.753Z,99.90
2018-11-29T22:33:43.062Z,99.90
2018-11-29T22:36:12.372Z,99.90
2018-11-29T22:38:44.423Z,99.90
2018-11-29T22:41:11.004Z,99.90
2018-11-29T22:43:40.248Z,99.90
2018-11-29T22:46:09.516Z,99.90
2018-11-29T22:48:38.800Z,99.90
2018-11-29T22:51:08.111Z,99.90
2018-11-29T22:53:37.387Z,99.90
2018-11-29T22:56:06.731Z,99.90
2018-11-29T22:58:36.124Z,99.90
2018-11-29T23:01:09.710Z,99.90
2018-11-29T23:03:39.083Z,99.90
2018-11-29T23:06:08.420Z,99.90
2018-11-29T23:08:37.727Z,99.90
2018-11-29T23:11:07.282Z,99.90
2018-11-29T23:13:36.603Z,99.90
2018-11-29T23:16:06.636Z,99.90
2018-11-29T23:18:36.070Z,99.90
2018-11-29T23:21:05.431Z,99.90
2018-11-29T23:23:34.794Z,99.90
2018-11-29T23:26:04.448Z,99.90
2018-11-29T23:28:33.755Z,99.90
2018-11-29T23:31:03.060Z,99.90
2018-11-29T23:33:32.347Z,99.90
2018-11-29T23:36:01.659Z,99.90
2018-11-29T23:38:30.919Z,99.90
2018-11-29T23:41:00.169Z,99.90
2018-11-29T23:43:29.492Z,99.90
2018-11-29T23:45:58.772Z,99.90
2018-11-29T23:48:28.024Z,99.90
2018-11-29T23:50:57.347Z,99.90
2018-11-29T23:53:26.661Z,99.90
2018-11-29T23:55:55.959Z,99.90
2018-11-29T23:58:25.337Z,99.90
